RKNN/KAG METAR and TAF weather

Enter ICAO airport designator
Station Type Date Time Source
RKNN METAR 2021/06/22 23:00 UTC NOAA

RKNN 222300Z 19001KT 9999 FEW015 BKN030 18/15 A2992 RMK CIG030


Station Type Date Time Source
RKNN Decoded METAR 2021/06/22 23:00 UTC NOAA

Kangnung Ab, Korea, South (RKNN) 37-45N 128-57E 6M
Jun 22, 2021 - 07:00 PM EDT / 2021.06.22 2300 UTC
Wind: from the S (190 degrees) at 1 MPH (1 KT):0
Visibility: greater than 7 mile(s):0
Sky conditions: mostly cloudy
Temperature: 64 F (18 C)
Dew Point: 59 F (15 C)
Relative Humidity: 82%
Pressure (altimeter): 29.92 in. Hg (1013 hPa)
ob: RKNN 222300Z 19001KT 9999 FEW015 BKN030 18/15 A2992 RMK CIG030
cycle: 23

Station Type Date Time Source
RKNN TAF 2013/10/14 20:56 UTC NOAA

TAF
AMD RKNN 142045Z 1420/1524 06006G16KT 4800 -RA BR SCT010 BKN020
BECMG 1423/1424 06006G16KT 3200 -RA BR BKN010 OVC020
BECMG 1511/1512 36010KT 4800 -RA BR BKN025 TX16/1421Z TN07/1520Z

Example: see airport list